Time;durP1;ratioP1;P1;durP2;ratioP2;P2;SDS_P1;SDS_P2;PMS_P1;PMS_P2;Temp;Humidity;BMP_temperature;BMP_pressure;BME280_temperature;BME280_humidity;BME280_pressure;Samples;Min_cycle;Max_cycle;Signal;HPM_P1;HPM_P2
2022/06/20 00:02:19;;;;;;;6.78;5.13;;;17.00;98.90;;;;;;5040315;28;20059;-72
2022/06/20 00:04:47;;;;;;;5.88;5.28;;;16.90;99.90;;;;;;5055430;28;20459;-72
2022/06/20 00:07:13;;;;;;;5.95;5.45;;;16.80;99.90;;;;;;5055374;28;20033;-71
2022/06/20 00:09:39;;;;;;;8.43;5.82;;;16.70;99.90;;;;;;5055395;28;20513;-72
2022/06/20 00:12:05;;;;;;;7.97;6.60;;;16.60;99.90;;;;;;5055306;28;20025;-72
2022/06/20 00:14:31;;;;;;;7.85;7.15;;;16.50;99.90;;;;;;5055258;28;20410;-73
2022/06/20 00:16:56;;;;;;;10.65;6.45;;;16.50;99.90;;;;;;5037237;28;20032;-72
2022/06/20 00:19:22;;;;;;;11.45;6.85;;;16.50;99.90;;;;;;5065404;28;20513;-71
2022/06/20 00:21:48;;;;;;;7.88;6.22;;;16.50;99.90;;;;;;5057293;28;20016;-71
2022/06/20 00:24:13;;;;;;;8.25;6.38;;;16.60;99.90;;;;;;5075006;28;20390;-71
2022/06/20 00:26:39;;;;;;;8.38;6.03;;;16.50;97.00;;;;;;5075094;28;20028;-71
2022/06/20 00:29:07;;;;;;;11.80;6.45;;;16.60;95.80;;;;;;5073897;28;20036;-73
2022/06/20 00:31:34;;;;;;;13.57;7.25;;;16.60;95.40;;;;;;5074929;28;20044;-71
2022/06/20 00:33:59;;;;;;;14.40;6.43;;;16.80;92.20;;;;;;5074879;28;20031;-72
2022/06/20 00:36:25;;;;;;;11.90;6.70;;;17.00;89.80;;;;;;5074793;28;20024;-71
2022/06/20 00:38:55;;;;;;;9.38;6.25;;;17.10;88.70;;;;;;5074748;28;20047;-71
2022/06/20 00:41:28;;;;;;;12.70;5.82;;;17.20;88.80;;;;;;5074783;28;20054;-72
2022/06/20 00:43:54;;;;;;;13.70;8.02;;;17.40;83.50;;;;;;5074603;28;20021;-71
2022/06/20 00:46:38;;;;;;;13.63;6.82;;;17.50;88.00;;;;;;5074699;28;20165;-72
2022/06/20 00:49:21;;;;;;;10.88;6.30;;;17.60;85.50;;;;;;5074554;28;20464;-72
2022/06/20 00:51:51;;;;;;;11.02;6.53;;;17.80;83.30;;;;;;5074567;28;20021;-71
2022/06/20 00:54:44;;;;;;;8.60;5.93;;;17.90;82.10;;;;;;5056522;28;20021;-72
2022/06/20 00:57:28;;;;;;;10.63;5.90;;;18.10;80.10;;;;;;5064107;28;20025;-71
2022/06/20 01:00:03;;;;;;;7.25;5.28;;;18.10;81.90;;;;;;5056426;28;20036;-71
2022/06/20 01:02:33;;;;;;;5.63;5.13;;;18.20;79.90;;;;;;5054888;28;20040;-72
2022/06/20 01:05:24;;;;;;;7.07;5.20;;;18.20;81.80;;;;;;5054153;28;20502;-72
2022/06/20 01:08:02;;;;;;;5.88;5.00;;;18.30;80.40;;;;;;5054153;28;20017;-72
2022/06/20 01:10:41;;;;;;;9.60;5.03;;;18.30;77.00;;;;;;5054300;28;20099;-72
2022/06/20 01:13:13;;;;;;;4.95;4.28;;;18.30;80.40;;;;;;5054053;28;20459;-73
2022/06/20 01:15:41;;;;;;;9.30;4.88;;;18.40;81.00;;;;;;5054169;28;20440;-72
2022/06/20 01:18:19;;;;;;;4.53;4.13;;;18.40;79.30;;;;;;5054169;28;20048;-72
2022/06/20 01:20:47;;;;;;;5.53;4.35;;;18.50;77.10;;;;;;5074090;28;20048;-72
2022/06/20 01:23:41;;;;;;;5.55;3.97;;;18.50;79.00;;;;;;5073868;28;20013;-72
2022/06/20 01:26:31;;;;;;;5.53;3.97;;;18.50;80.10;;;;;;5073924;28;20028;-72
2022/06/20 01:29:00;;;;;;;6.95;4.10;;;18.50;80.10;;;;;;5055818;28;20032;-72
2022/06/20 01:31:31;;;;;;;6.32;4.28;;;18.50;79.00;;;;;;5073767;28;20025;-72
2022/06/20 01:34:00;;;;;;;7.65;4.55;;;18.50;77.40;;;;;;5073881;28;20017;-72
2022/06/20 01:39:15;;;;;;;4.57;3.95;;;18.40;81.70;;;;;;5073530;28;20046;-72
2022/06/20 01:44:45;;;;;;;4.97;4.10;;;18.50;80.10;;;;;;4992201;28;20034;-72
2022/06/20 01:47:11;;;;;;;4.85;4.40;;;18.60;78.00;;;;;;5058307;28;20035;-72
2022/06/20 01:49:39;;;;;;;6.32;4.55;;;18.60;79.10;;;;;;5073487;28;20036;-71
2022/06/20 01:52:16;;;;;;;8.13;4.60;;;18.60;79.40;;;;;;5055655;28;20025;-72
2022/06/20 01:54:47;;;;;;;6.68;5.13;;;18.60;79.10;;;;;;5073543;28;20086;-72
2022/06/20 01:57:15;;;;;;;7.03;4.57;;;18.60;80.70;;;;;;5073641;28;20024;-71
2022/06/20 01:59:54;;;;;;;5.15;3.97;;;18.50;79.80;;;;;;5073446;28;20145;-72
2022/06/20 02:02:19;;;;;;;6.70;5.30;;;18.50;79.10;;;;;;5054537;28;20394;-72
2022/06/20 02:04:46;;;;;;;7.15;4.85;;;18.50;78.60;;;;;;5053078;28;20085;-72
2022/06/20 02:07:12;;;;;;;9.32;4.90;;;18.50;78.90;;;;;;5053485;28;20021;-71
2022/06/20 02:09:40;;;;;;;6.93;5.22;;;18.50;83.10;;;;;;5053153;28;20070;-71
2022/06/20 02:12:07;;;;;;;8.63;5.50;;;18.40;82.10;;;;;;5053451;28;20029;-71
2022/06/20 02:14:48;;;;;;;9.15;5.38;;;18.40;81.40;;;;;;5053212;28;20021;-72
2022/06/20 02:17:31;;;;;;;5.90;4.90;;;18.30;82.50;;;;;;5053400;28;20025;-72
2022/06/20 02:20:02;;;;;;;8.95;5.57;;;18.30;81.30;;;;;;5050888;28;20021;-72
2022/06/20 02:22:30;;;;;;;6.75;5.15;;;18.40;80.40;;;;;;5073446;28;20020;-72
2022/06/20 02:25:02;;;;;;;9.73;6.00;;;18.30;83.80;;;;;;5073207;28;20104;-72
2022/06/20 02:27:32;;;;;;;5.57;5.03;;;18.30;85.40;;;;;;5055358;28;20120;-72
2022/06/20 02:29:59;;;;;;;6.90;5.80;;;18.30;85.20;;;;;;5055042;28;20032;-72
2022/06/20 02:32:29;;;;;;;8.57;5.65;;;18.20;85.40;;;;;;5055211;28;20108;-73
2022/06/20 02:34:55;;;;;;;7.97;5.28;;;18.20;87.00;;;;;;5073310;28;20071;-72
2022/06/20 02:37:24;;;;;;;8.93;6.47;;;18.10;86.60;;;;;;5073184;28;20056;-72
2022/06/20 02:40:00;;;;;;;8.70;6.15;;;18.10;88.00;;;;;;5054997;28;20445;-72
2022/06/20 02:42:28;;;;;;;9.80;6.28;;;18.00;89.00;;;;;;5073095;28;20032;-72
2022/06/20 02:44:55;;;;;;;7.55;6.78;;;18.00;88.70;;;;;;5072860;28;20194;-72
2022/06/20 02:47:23;;;;;;;9.05;6.40;;;18.00;91.00;;;;;;5073267;28;20032;-72
2022/06/20 02:49:52;;;;;;;7.57;5.85;;;18.00;90.60;;;;;;5054854;28;20029;-72
2022/06/20 02:52:25;;;;;;;9.80;6.50;;;17.90;92.30;;;;;;5057099;28;20115;-71
2022/06/20 02:54:52;;;;;;;7.90;6.13;;;17.80;93.30;;;;;;5058782;28;20020;-72
2022/06/20 02:57:30;;;;;;;11.93;6.15;;;17.80;92.50;;;;;;5058810;28;20035;-72
2022/06/20 02:59:59;;;;;;;9.57;6.53;;;17.70;92.50;;;;;;5076673;28;20484;-72
2022/06/20 03:02:28;;;;;;;7.35;6.65;;;17.60;92.40;;;;;;5056683;28;20036;-71
2022/06/20 03:04:54;;;;;;;8.40;6.63;;;17.70;93.90;;;;;;5056284;28;20504;-71
2022/06/20 03:07:24;;;;;;;8.05;6.30;;;17.60;94.00;;;;;;5056612;28;20036;-72
2022/06/20 03:09:57;;;;;;;9.88;6.63;;;17.60;92.50;;;;;;5056380;28;20182;-72
2022/06/20 03:12:22;;;;;;;9.73;5.93;;;17.60;92.60;;;;;;5056534;28;20383;-71
2022/06/20 03:14:55;;;;;;;11.65;6.65;;;17.70;92.40;;;;;;5038459;28;20036;-72
2022/06/20 03:17:23;;;;;;;8.38;5.90;;;17.80;93.40;;;;;;5038600;28;20118;-72
2022/06/20 03:19:56;;;;;;;12.10;6.55;;;17.80;95.30;;;;;;5071039;28;20112;-71
2022/06/20 03:22:27;;;;;;;7.30;6.03;;;17.90;97.10;;;;;;5058464;28;20104;-72
2022/06/20 03:24:54;;;;;;;16.80;7.50;;;17.90;97.60;;;;;;5076222;28;20020;-71
2022/06/20 03:27:25;;;;;;;7.82;5.80;;;17.90;98.30;;;;;;5076249;28;20478;-72
2022/06/20 03:29:56;;;;;;;7.75;6.15;;;18.00;97.00;;;;;;5075991;28;20036;-73
2022/06/20 03:32:25;;;;;;;12.18;6.28;;;18.20;96.30;;;;;;5076195;28;20532;-72
2022/06/20 03:34:53;;;;;;;6.65;5.50;;;18.40;94.00;;;;;;5075950;28;20025;-72
2022/06/20 03:37:19;;;;;;;6.47;5.20;;;18.50;90.20;;;;;;5076059;28;20024;-72
2022/06/20 03:39:47;;;;;;;7.30;5.38;;;18.80;87.50;;;;;;5057881;28;20494;-71
2022/06/20 03:42:13;;;;;;;11.77;6.68;;;18.90;88.70;;;;;;5057979;28;20021;-72
2022/06/20 03:44:51;;;;;;;7.18;5.80;;;19.10;87.50;;;;;;5075742;28;20059;-72
2022/06/20 03:47:30;;;;;;;9.30;5.28;;;19.30;83.10;;;;;;5075931;28;20016;-73
2022/06/20 03:50:25;;;;;;;11.88;5.28;;;19.50;81.40;;;;;;5075688;28;20088;-72
2022/06/20 03:52:59;;;;;;;7.10;5.50;;;19.70;80.20;;;;;;5053775;28;20031;-72
2022/06/20 03:55:34;;;;;;;10.93;5.63;;;19.90;76.90;;;;;;5075761;28;20032;-72
2022/06/20 03:58:15;;;;;;;8.07;5.85;;;20.00;76.00;;;;;;5075758;28;20026;-72
2022/06/20 04:00:58;;;;;;;8.02;5.63;;;20.10;75.20;;;;;;5069640;28;20054;-72
2022/06/20 04:03:24;;;;;;;11.50;5.90;;;20.30;74.80;;;;;;5055604;28;20079;-72
2022/06/20 04:05:57;;;;;;;12.45;6.43;;;20.40;74.10;;;;;;5055373;28;20057;-72
2022/06/20 04:11:38;;;;;;;9.30;5.88;;;20.50;72.90;;;;;;5055616;28;20032;-72
2022/06/20 04:14:22;;;;;;;6.78;5.63;;;20.70;72.80;;;;;;5055483;28;20029;-72
2022/06/20 04:16:57;;;;;;;7.38;6.40;;;20.80;72.50;;;;;;5037394;28;20470;-72
2022/06/20 04:19:30;;;;;;;8.10;6.20;;;20.90;72.80;;;;;;5048877;28;20035;-72
2022/06/20 04:22:13;;;;;;;8.95;5.90;;;21.00;70.50;;;;;;5075107;28;20021;-72
2022/06/20 04:24:39;;;;;;;9.57;6.40;;;21.20;70.70;;;;;;5075251;28;20031;-72
2022/06/20 04:27:10;;;;;;;7.13;5.38;;;21.30;70.50;;;;;;5057172;28;20119;-73
2022/06/20 04:29:48;;;;;;;8.17;5.90;;;21.30;69.40;;;;;;5075194;28;20043;-72
2022/06/20 04:32:23;;;;;;;6.88;5.57;;;21.30;69.30;;;;;;5074959;28;20031;-72
2022/06/20 04:35:05;;;;;;;6.95;5.28;;;21.40;69.30;;;;;;5056968;28;20033;-72
2022/06/20 04:37:43;;;;;;;6.38;5.47;;;21.50;69.10;;;;;;5074970;28;20034;-72
2022/06/20 04:40:35;;;;;;;8.02;5.80;;;21.60;70.00;;;;;;5074958;28;20028;-72
2022/06/20 04:43:04;;;;;;;;;;;21.70;70.60;;;;;;5075380;28;20025;-72
2022/06/20 04:45:42;;;;;;;8.45;5.45;;;21.70;68.70;;;;;;5074509;28;20413;-72
2022/06/20 04:48:15;;;;;;;10.40;5.63;;;21.70;69.30;;;;;;5074674;28;20470;-73
2022/06/20 04:50:49;;;;;;;6.25;5.65;;;21.80;69.30;;;;;;5074616;28;20559;-72
2022/06/20 04:53:43;;;;;;;7.85;5.22;;;21.80;69.90;;;;;;5074571;28;20094;-72
2022/06/20 04:56:14;;;;;;;6.95;5.70;;;21.80;70.00;;;;;;5073668;28;20051;-72
2022/06/20 04:58:47;;;;;;;7.88;5.95;;;21.90;70.30;;;;;;5056549;28;20024;-72
2022/06/20 05:01:12;;;;;;;7.80;5.57;;;22.10;70.50;;;;;;5063671;28;20013;-73
2022/06/20 05:03:45;;;;;;;11.07;5.55;;;22.10;70.20;;;;;;5054386;28;20035;-73
2022/06/20 05:06:18;;;;;;;7.25;5.90;;;22.20;69.50;;;;;;5054188;28;20064;-72
2022/06/20 05:08:50;;;;;;;10.77;5.63;;;22.10;69.30;;;;;;5054303;28;20024;-73
2022/06/20 05:11:42;;;;;;;7.53;5.20;;;22.10;69.60;;;;;;5036141;28;20028;-72
2022/06/20 05:14:28;;;;;;;10.07;5.63;;;22.20;69.90;;;;;;5053764;28;20028;-73
2022/06/20 05:16:55;;;;;;;9.23;5.93;;;22.40;70.80;;;;;;5054174;28;20475;-72
2022/06/20 05:19:28;;;;;;;8.50;5.20;;;22.50;71.90;;;;;;5065721;28;20143;-72
2022/06/20 05:21:59;;;;;;;9.23;5.45;;;22.70;69.70;;;;;;5074010;28;20363;-73
2022/06/20 05:24:30;;;;;;;7.88;5.38;;;22.80;69.30;;;;;;5073961;28;20390;-73
2022/06/20 05:26:59;;;;;;;5.88;5.25;;;22.90;68.90;;;;;;5073883;28;20040;-72
2022/06/20 05:29:32;;;;;;;8.85;5.68;;;22.90;67.60;;;;;;5055893;28;20040;-72
2022/06/20 05:32:02;;;;;;;13.15;5.63;;;23.00;69.30;;;;;;5073803;28;20020;-72
2022/06/20 05:34:54;;;;;;;4.72;4.13;;;23.00;69.50;;;;;;5055968;28;20040;-72
2022/06/20 05:37:36;;;;;;;4.57;3.95;;;23.10;67.10;;;;;;5073821;28;20025;-73
2022/06/20 05:40:20;;;;;;;7.97;3.97;;;23.20;66.30;;;;;;5073838;28;20033;-72
2022/06/20 05:42:46;;;;;;;5.18;3.78;;;23.30;66.10;;;;;;5073760;28;20021;-72
2022/06/20 05:45:14;;;;;;;5.53;3.60;;;23.40;68.90;;;;;;5055970;28;20050;-73
2022/06/20 05:47:41;;;;;;;7.30;3.65;;;23.60;68.50;;;;;;5073559;28;20027;-72
2022/06/20 05:50:36;;;;;;;3.70;3.45;;;23.70;66.30;;;;;;5073559;28;20039;-72
2022/06/20 05:53:06;;;;;;;5.70;3.35;;;23.80;63.00;;;;;;5073696;28;20056;-72
2022/06/20 05:55:47;;;;;;;5.13;3.10;;;23.90;62.80;;;;;;5073587;28;20024;-72
2022/06/20 05:58:19;;;;;;;7.25;2.97;;;23.90;62.10;;;;;;5073471;28;20012;-72
2022/06/20 06:00:47;;;;;;;6.30;3.40;;;23.90;61.20;;;;;;5066334;28;20025;-72
2022/06/20 06:03:21;;;;;;;3.67;3.38;;;24.00;60.00;;;;;;5053369;28;20025;-73
2022/06/20 06:06:14;;;;;;;4.43;3.70;;;24.20;60.50;;;;;;5053324;28;20459;-72
2022/06/20 06:08:46;;;;;;;4.60;3.45;;;24.30;61.20;;;;;;5053281;28;20037;-72
2022/06/20 06:11:37;;;;;;;3.72;3.33;;;24.40;61.00;;;;;;5053472;28;20060;-72
2022/06/20 06:14:10;;;;;;;7.45;2.95;;;24.50;60.40;;;;;;5053432;28;20029;-72
2022/06/20 06:16:50;;;;;;;3.30;2.58;;;24.60;58.50;;;;;;5053212;28;20036;-72
2022/06/20 06:19:41;;;;;;;3.55;3.10;;;24.60;57.00;;;;;;5064673;28;20024;-73
2022/06/20 06:22:16;;;;;;;4.25;2.58;;;24.60;57.10;;;;;;5055179;28;20558;-72
2022/06/20 06:24:45;;;;;;;6.10;3.10;;;24.70;57.00;;;;;;5073288;28;20544;-72
2022/06/20 06:27:19;;;;;;;8.10;3.20;;;24.70;57.20;;;;;;5075167;28;20055;-72
2022/06/20 06:30:00;;;;;;;6.25;2.72;;;24.80;57.40;;;;;;5077558;28;20032;-72
2022/06/20 06:32:41;;;;;;;3.40;3.10;;;24.90;55.80;;;;;;5077284;28;20020;-72
2022/06/20 06:35:22;;;;;;;4.18;3.15;;;25.10;56.90;;;;;;5077286;28;20025;-72
2022/06/20 06:38:03;;;;;;;7.43;3.85;;;25.20;55.90;;;;;;5059459;28;20027;-72
2022/06/20 06:40:46;;;;;;;3.83;2.85;;;25.30;54.50;;;;;;5077412;28;20021;-73
2022/06/20 06:43:24;;;;;;;4.45;3.38;;;25.30;54.50;;;;;;5077076;28;20020;-72
2022/06/20 06:45:53;;;;;;;6.13;3.25;;;25.50;55.40;;;;;;5077099;28;20033;-72
2022/06/20 06:48:38;;;;;;;5.80;3.10;;;25.60;55.60;;;;;;5076729;28;20455;-73
2022/06/20 06:51:36;;;;;;;5.55;3.88;;;25.70;54.00;;;;;;5077062;28;20029;-72
2022/06/20 06:54:16;;;;;;;4.25;3.22;;;25.80;54.90;;;;;;5065969;28;20037;-73
2022/06/20 06:57:03;;;;;;;4.15;3.33;;;25.80;53.60;;;;;;5076979;28;20021;-73
2022/06/20 06:59:45;;;;;;;8.55;3.60;;;25.80;54.00;;;;;;5076671;28;20423;-72
2022/06/20 07:02:16;;;;;;;6.00;4.03;;;25.80;53.20;;;;;;5057203;28;20025;-72
2022/06/20 07:05:09;;;;;;;9.00;4.13;;;25.80;54.10;;;;;;5056149;28;20021;-72
2022/06/20 07:07:38;;;;;;;12.57;4.82;;;25.90;53.30;;;;;;5055449;28;20537;-72
2022/06/20 07:10:11;;;;;;;9.32;4.35;;;26.10;54.60;;;;;;5037366;28;20091;-72
2022/06/20 07:12:45;;;;;;;9.10;3.95;;;26.20;54.60;;;;;;5055256;28;20024;-72
2022/06/20 07:15:17;;;;;;;8.02;4.20;;;26.10;54.30;;;;;;5037327;28;20016;-72
2022/06/20 07:17:54;;;;;;;6.50;3.58;;;26.30;53.20;;;;;;5055153;28;20033;-73
2022/06/20 07:20:24;;;;;;;10.13;3.88;;;26.50;53.40;;;;;;5055331;28;20029;-72
2022/06/20 07:22:51;;;;;;;8.57;4.85;;;26.60;52.80;;;;;;5053743;28;20032;-72
2022/06/20 07:25:27;;;;;;;8.48;4.22;;;26.80;53.50;;;;;;5055133;28;20021;-72
2022/06/20 07:28:24;;;;;;;9.27;4.15;;;26.80;51.30;;;;;;5053617;28;20498;-73
2022/06/20 07:30:56;;;;;;;12.02;4.47;;;26.70;52.40;;;;;;5054373;28;20496;-72
2022/06/20 07:33:34;;;;;;;10.73;4.95;;;26.70;52.20;;;;;;5054981;28;20561;-73
2022/06/20 07:36:04;;;;;;;9.48;4.53;;;26.50;53.00;;;;;;5055023;28;20017;-73
2022/06/20 07:38:35;;;;;;;8.00;4.32;;;26.90;53.50;;;;;;5054282;28;20029;-73
2022/06/20 07:41:19;;;;;;;8.15;4.72;;;26.90;52.70;;;;;;5054934;28;20033;-72
2022/06/20 07:43:58;;;;;;;8.88;5.10;;;26.80;52.00;;;;;;5054711;28;20021;-73
2022/06/20 07:46:43;;;;;;;9.20;4.38;;;26.80;51.30;;;;;;5037043;28;20022;-73
2022/06/20 07:49:35;;;;;;;5.88;3.97;;;27.00;52.90;;;;;;5054544;28;20125;-73
2022/06/20 07:52:11;;;;;;;10.25;4.43;;;27.20;52.60;;;;;;5054859;28;20375;-72
2022/06/20 07:54:44;;;;;;;7.40;3.83;;;27.20;52.00;;;;;;5054604;28;20028;-72
2022/06/20 07:57:23;;;;;;;8.38;4.88;;;27.40;51.60;;;;;;5054770;28;20155;-73
2022/06/20 08:00:17;;;;;;;6.80;4.55;;;27.40;51.80;;;;;;5054529;28;20021;-72
2022/06/20 08:03:26;;;;;;;6.45;3.97;;;27.60;52.70;;;;;;5066822;28;20147;-72
2022/06/20 08:06:03;;;;;;;9.25;4.82;;;27.70;51.80;;;;;;5033393;28;1187234;-72
2022/06/20 08:08:47;;;;;;;6.05;4.60;;;27.90;50.30;;;;;;5075468;28;20028;-73
2022/06/20 08:11:39;;;;;;;9.52;5.03;;;28.00;50.70;;;;;;5075452;28;20020;-72
2022/06/20 08:14:04;;;;;;;9.75;4.60;;;28.20;51.20;;;;;;5075208;28;20432;-72
2022/06/20 08:16:31;;;;;;;9.45;4.70;;;28.10;51.00;;;;;;5075375;28;20017;-72
2022/06/20 08:18:59;;;;;;;9.13;4.45;;;28.40;50.40;;;;;;5065751;28;20020;-73
2022/06/20 08:21:33;;;;;;;10.43;4.38;;;28.40;49.40;;;;;;5037260;28;20031;-72
2022/06/20 08:24:12;;;;;;;6.93;4.20;;;28.40;48.80;;;;;;5055210;28;20040;-73
2022/06/20 08:26:50;;;;;;;6.38;3.85;;;28.50;49.70;;;;;;5055331;28;20028;-72
2022/06/20 08:29:35;;;;;;;9.18;4.13;;;28.70;49.20;;;;;;5055108;28;20033;-72
2022/06/20 08:32:10;;;;;;;4.97;3.33;;;28.70;48.80;;;;;;5037263;28;20033;-72
2022/06/20 08:34:52;;;;;;;5.75;4.00;;;28.70;45.90;;;;;;5054868;28;20535;-73
2022/06/20 08:37:33;;;;;;;8.95;3.67;;;28.50;47.00;;;;;;5055068;28;20471;-73
2022/06/20 08:40:15;;;;;;;7.93;4.18;;;28.60;48.00;;;;;;5037206;28;20039;-72
2022/06/20 08:43:06;;;;;;;8.18;4.78;;;28.40;48.50;;;;;;5054953;28;20524;-73
2022/06/20 08:45:56;;;;;;;6.88;3.92;;;28.30;48.50;;;;;;5054709;28;20390;-73
2022/06/20 08:48:33;;;;;;;6.97;3.50;;;28.70;48.10;;;;;;5054707;28;20025;-73
2022/06/20 08:51:11;;;;;;;4.47;3.22;;;28.80;47.70;;;;;;5054030;28;20108;-73
2022/06/20 08:54:14;;;;;;;8.25;3.30;;;29.00;47.70;;;;;;5036734;28;20426;-73
2022/06/20 08:56:54;;;;;;;5.88;3.20;;;28.90;45.70;;;;;;5033346;28;20064;-73
2022/06/20 08:59:47;;;;;;;5.13;3.30;;;29.10;45.80;;;;;;5054399;28;20483;-73
2022/06/20 09:02:15;;;;;;;;;;;29.30;47.40;;;;;;5054901;28;20029;-73
2022/06/20 09:05:04;;;;;;;4.65;3.13;;;29.60;45.90;;;;;;5054146;28;19915;-73
2022/06/20 09:07:48;;;;;;;5.63;3.17;;;29.80;44.30;;;;;;5054488;28;20118;-73
2022/06/20 09:10:35;;;;;;;4.57;2.90;;;29.80;43.90;;;;;;5036257;28;20040;-73
2022/06/20 09:13:08;;;;;;;5.43;3.17;;;29.90;44.80;;;;;;5054282;28;20475;-73
2022/06/20 09:16:04;;;;;;;5.65;2.97;;;30.10;45.60;;;;;;5054058;28;20025;-73
2022/06/20 09:18:44;;;;;;;4.82;4.13;;;30.30;44.70;;;;;;5055481;28;20028;-73
2022/06/20 09:21:31;;;;;;;3.45;2.92;;;30.40;45.10;;;;;;5056381;28;20039;-73
2022/06/20 09:24:02;;;;;;;5.43;2.80;;;30.40;44.30;;;;;;5074188;28;20032;-73
2022/06/20 09:26:38;;;;;;;6.50;2.90;;;30.40;44.00;;;;;;5056003;28;20029;-73
2022/06/20 09:29:28;;;;;;;4.20;2.70;;;30.40;44.20;;;;;;5073964;28;20474;-73
2022/06/20 09:32:15;;;;;;;5.40;3.03;;;30.50;42.90;;;;;;5073929;28;20029;-73
2022/06/20 09:35:01;;;;;;;5.57;3.90;;;30.50;42.90;;;;;;5073932;28;20100;-73
2022/06/20 09:37:48;;;;;;;8.63;3.45;;;30.60;44.20;;;;;;5055953;28;20024;-73
2022/06/20 09:40:32;;;;;;;5.22;2.83;;;30.60;44.70;;;;;;5055769;28;20028;-73
2022/06/20 09:43:24;;;;;;;6.35;3.20;;;30.80;44.60;;;;;;5073898;28;20016;-73
2022/06/20 09:45:58;;;;;;;6.00;3.37;;;30.90;44.60;;;;;;5073709;28;20429;-73
2022/06/20 09:48:44;;;;;;;7.95;3.53;;;30.90;42.70;;;;;;5055768;28;20795;-73
2022/06/20 09:51:22;;;;;;;4.57;3.08;;;30.80;42.40;;;;;;5073706;28;20016;-73
2022/06/20 09:54:13;;;;;;;7.60;2.97;;;30.90;42.30;;;;;;5073711;28;20101;-73
2022/06/20 09:56:44;;;;;;;6.85;3.58;;;31.10;43.60;;;;;;5073609;28;20417;-73
2022/06/20 09:59:32;;;;;;;6.40;3.20;;;31.00;42.50;;;;;;5073643;28;20427;-73
2022/06/20 10:02:09;;;;;;;4.45;3.20;;;31.20;41.70;;;;;;5036868;28;20017;-73
2022/06/20 10:04:43;;;;;;;4.43;3.00;;;31.20;43.20;;;;;;5053557;28;20082;-73
2022/06/20 10:07:31;;;;;;;5.38;3.17;;;31.40;42.90;;;;;;5053464;28;20513;-73
2022/06/20 10:10:20;;;;;;;3.90;3.45;;;31.50;42.40;;;;;;5053401;28;20478;-73
2022/06/20 10:13:13;;;;;;;6.78;3.40;;;31.70;43.00;;;;;;5053361;28;20017;-73
2022/06/20 10:15:53;;;;;;;9.27;3.00;;;31.60;41.80;;;;;;5043347;28;20033;-73
2022/06/20 10:18:48;;;;;;;4.85;3.17;;;31.80;42.80;;;;;;5058225;28;20024;-73
2022/06/20 10:21:45;;;;;;;5.18;3.47;;;31.80;42.20;;;;;;5073106;28;20029;-73
2022/06/20 10:24:29;;;;;;;4.82;3.05;;;32.00;43.50;;;;;;5055404;28;20024;-73
2022/06/20 10:27:07;;;;;;;6.97;3.40;;;31.80;41.10;;;;;;5055211;28;20029;-73
2022/06/20 10:29:54;;;;;;;3.42;2.70;;;31.80;42.40;;;;;;5073294;28;20032;-73
2022/06/20 10:32:39;;;;;;;8.05;3.63;;;32.00;43.20;;;;;;5073218;28;20038;-73
2022/06/20 10:35:32;;;;;;;4.18;3.13;;;32.20;42.30;;;;;;5073242;28;20025;-73
2022/06/20 10:38:06;;;;;;;5.15;3.67;;;32.30;41.60;;;;;;5073282;28;20028;-73
2022/06/20 10:40:58;;;;;;;6.65;3.70;;;32.40;41.30;;;;;;5073165;28;20017;-73
2022/06/20 10:43:54;;;;;;;10.50;3.22;;;32.50;41.90;;;;;;5073222;28;20051;-73
2022/06/20 10:46:20;;;;;;;8.20;3.67;;;32.60;41.00;;;;;;5073078;28;20021;-73
2022/06/20 10:49:00;;;;;;;4.68;3.15;;;32.60;40.30;;;;;;5055023;28;20063;-73
2022/06/20 10:52:01;;;;;;;7.20;3.53;;;32.70;40.70;;;;;;5073014;28;20107;-73
2022/06/20 10:54:33;;;;;;;8.07;3.80;;;32.60;39.90;;;;;;5073037;28;20409;-73
2022/06/20 10:57:37;;;;;;;9.20;4.00;;;32.90;40.50;;;;;;5072988;28;20078;-73
2022/06/20 11:00:10;;;;;;;9.05;3.30;;;32.80;40.90;;;;;;5069993;28;20353;-73
2022/06/20 11:02:41;;;;;;;6.50;2.95;;;32.80;40.20;;;;;;5052928;28;20378;-73
2022/06/20 11:05:31;;;;;;;3.53;2.65;;;32.90;39.90;;;;;;5052700;28;20064;-73
2022/06/20 11:08:26;;;;;;;8.98;2.92;;;33.00;40.00;;;;;;5034750;28;20025;-73
2022/06/20 11:11:00;;;;;;;7.13;3.50;;;33.10;40.10;;;;;;5026647;28;20037;-74
2022/06/20 11:14:07;;;;;;;5.38;3.03;;;33.20;39.60;;;;;;5055067;28;20494;-73
2022/06/20 11:16:38;;;;;;;3.90;2.92;;;33.20;39.70;;;;;;5056398;28;20029;-73
2022/06/20 11:19:09;;;;;;;8.82;3.40;;;33.30;39.30;;;;;;5067749;28;20021;-73
2022/06/20 11:21:56;;;;;;;5.25;2.83;;;33.40;39.60;;;;;;5058281;28;20116;-73
2022/06/20 11:24:27;;;;;;;6.05;2.78;;;33.40;38.40;;;;;;5058434;28;20043;-73
2022/06/20 11:27:02;;;;;;;;;;;33.60;38.00;;;;;;5076611;28;20017;-74
2022/06/20 11:29:33;;;;;;;4.60;2.65;;;33.70;38.00;;;;;;5076246;28;20357;-73
2022/06/20 11:32:23;;;;;;;6.88;3.55;;;34.00;38.20;;;;;;5076199;28;20490;-73
2022/06/20 11:35:15;;;;;;;7.05;3.40;;;33.70;37.60;;;;;;5076242;28;20416;-73
2022/06/20 11:37:55;;;;;;;5.55;3.55;;;33.70;37.90;;;;;;5076438;28;20029;-73
2022/06/20 11:40:57;;;;;;;9.85;5.72;;;33.70;38.20;;;;;;5058187;28;20050;-73
2022/06/20 11:43:42;;;;;;;12.15;4.80;;;33.40;37.80;;;;;;5075985;28;20023;-73
2022/06/20 11:46:32;;;;;;;21.83;10.32;;;33.10;39.00;;;;;;5075905;28;20025;-73
2022/06/20 11:49:22;;;;;;;10.85;4.82;;;32.80;38.30;;;;;;5075794;28;20043;-74
2022/06/20 11:52:12;;;;;;;25.70;9.05;;;32.80;39.60;;;;;;5075748;28;20028;-73
2022/06/20 11:55:04;;;;;;;23.77;8.75;;;32.50;39.60;;;;;;5057694;28;20021;-73
2022/06/20 11:57:57;;;;;;;14.02;4.43;;;31.80;40.30;;;;;;5071764;28;20033;-73
2022/06/20 12:00:46;;;;;;;11.25;6.03;;;31.10;41.30;;;;;;5069684;28;20147;-73
2022/06/20 12:03:35;;;;;;;11.20;4.10;;;30.60;41.90;;;;;;5020836;28;20107;-73
2022/06/20 12:06:32;;;;;;;9.32;3.95;;;30.00;44.40;;;;;;5037713;28;20076;-74
2022/06/20 12:09:24;;;;;;;11.68;4.05;;;29.50;45.50;;;;;;5017116;28;20048;-73
2022/06/20 12:12:15;;;;;;;9.07;4.60;;;29.20;47.00;;;;;;5055347;28;20103;-74
2022/06/20 12:15:00;;;;;;;12.32;3.80;;;28.90;47.80;;;;;;5055246;28;20052;-74
2022/06/20 12:17:53;;;;;;;9.20;4.07;;;28.50;49.30;;;;;;5037358;28;20063;-74
2022/06/20 12:23:36;;;;;;;8.57;3.88;;;27.80;51.30;;;;;;5054646;28;20457;-73
2022/06/20 12:26:14;;;;;;;12.75;3.70;;;27.40;53.00;;;;;;5054774;28;20032;-74
2022/06/20 12:28:48;;;;;;;3.40;3.10;;;27.30;54.00;;;;;;5055027;28;20025;-74
2022/06/20 12:31:19;;;;;;;5.00;3.28;;;26.90;53.10;;;;;;5055020;28;20017;-74
2022/06/20 12:33:57;;;;;;;15.48;3.97;;;26.70;54.20;;;;;;5055030;28;20082;-73
2022/06/20 12:36:48;;;;;;;10.65;3.22;;;26.50;55.20;;;;;;5054949;28;20417;-74
2022/06/20 12:39:35;;;;;;;4.72;2.88;;;26.40;55.90;;;;;;5053634;28;20075;-73
2022/06/20 12:42:18;;;;;;;6.95;3.03;;;26.20;56.40;;;;;;5055109;28;20096;-73
2022/06/20 12:45:06;;;;;;;5.05;2.42;;;26.20;56.30;;;;;;5053550;28;20086;-73
2022/06/20 12:47:46;;;;;;;6.10;3.65;;;25.80;55.20;;;;;;5054795;28;20021;-74
2022/06/20 12:50:28;;;;;;;8.70;2.40;;;25.70;55.20;;;;;;5054761;28;20037;-73
2022/06/20 12:53:47;;;;;;;2.83;2.63;;;25.70;55.20;;;;;;5054687;28;20063;-73
2022/06/20 12:56:15;;;;;;;6.75;2.90;;;25.50;56.30;;;;;;4993155;28;20073;-75
2022/06/20 12:58:59;;;;;;;5.47;3.33;;;25.30;57.90;;;;;;4993066;28;20432;-72
2022/06/20 13:01:39;;;;;;;8.52;3.70;;;25.40;58.80;;;;;;5026991;28;20025;-74
2022/06/20 13:04:23;;;;;;;5.22;3.08;;;25.30;59.80;;;;;;5054426;28;20430;-74
2022/06/20 13:07:20;;;;;;;5.35;3.03;;;25.40;59.60;;;;;;5054585;28;20052;-73
2022/06/20 13:10:15;;;;;;;3.75;3.15;;;25.40;61.50;;;;;;5035961;28;20045;-72
2022/06/20 13:13:10;;;;;;;4.47;3.25;;;25.30;63.40;;;;;;5054248;28;20033;-72
2022/06/20 13:15:35;;;;;;;4.35;2.58;;;25.20;64.60;;;;;;5036209;28;20036;-74
2022/06/20 13:18:19;;;;;;;4.15;2.60;;;25.30;63.90;;;;;;5057434;28;20508;-73
2022/06/20 13:21:09;;;;;;;5.05;2.80;;;25.40;64.50;;;;;;5074179;28;20021;-72
2022/06/20 13:24:03;;;;;;;5.70;3.17;;;25.70;63.90;;;;;;5074119;28;20052;-73
2022/06/20 13:26:47;;;;;;;3.15;2.22;;;25.80;60.40;;;;;;5056085;28;20070;-73
2022/06/20 13:29:37;;;;;;;4.03;2.67;;;26.00;60.50;;;;;;5073848;28;20032;-74
2022/06/20 13:32:57;;;;;;;3.90;2.50;;;26.10;59.30;;;;;;5074031;28;20020;-72
2022/06/20 13:35:34;;;;;;;3.38;2.97;;;26.00;59.40;;;;;;4975976;28;20455;-73
2022/06/20 13:38:12;;;;;;;6.03;3.00;;;26.00;59.90;;;;;;5063762;28;20028;-73
2022/06/20 13:40:53;;;;;;;3.45;3.05;;;26.10;58.90;;;;;;5074004;28;20024;-73
2022/06/20 13:43:43;;;;;;;6.80;2.70;;;26.20;58.90;;;;;;5073851;28;20492;-74
2022/06/20 13:46:21;;;;;;;5.03;3.03;;;26.40;59.50;;;;;;5073664;28;20020;-73
2022/06/20 13:49:02;;;;;;;3.03;2.70;;;26.50;61.20;;;;;;5073571;28;20033;-73
2022/06/20 13:51:43;;;;;;;2.70;2.50;;;26.40;61.50;;;;;;5073839;28;20021;-73
2022/06/20 13:54:41;;;;;;;3.20;2.65;;;26.50;61.00;;;;;;5073561;28;20271;-72
2022/06/20 13:57:17;;;;;;;4.95;2.65;;;26.20;60.80;;;;;;5072902;28;20058;-74